createdAt,value
2022-10-25T00:00:23.711Z,13.87
2022-10-25T00:02:51.387Z,13.17
2022-10-25T00:05:18.821Z,12.37
2022-10-25T00:07:46.559Z,12.17
2022-10-25T00:10:14.514Z,13.27
2022-10-25T00:12:44.129Z,12.43
2022-10-25T00:15:14.633Z,12.40
2022-10-25T00:17:43.595Z,12.43
2022-10-25T00:20:12.618Z,11.60
2022-10-25T00:22:40.484Z,11.82
2022-10-25T00:25:09.376Z,10.57
2022-10-25T00:27:37.892Z,11.60
2022-10-25T00:30:07.130Z,13.13
2022-10-25T00:32:35.391Z,15.97
2022-10-25T00:35:03.222Z,14.90
2022-10-25T00:37:30.898Z,14.83
2022-10-25T00:39:58.695Z,15.33
2022-10-25T00:42:27.399Z,16.97
2022-10-25T00:45:02.021Z,16.08
2022-10-25T00:47:51.776Z,16.50
2022-10-25T00:50:21.304Z,16.47
2022-10-25T00:52:52.633Z,16.90
2022-10-25T00:55:24.306Z,14.30
2022-10-25T00:58:02.455Z,14.67
2022-10-25T01:00:30.036Z,13.00
2022-10-25T01:02:58.145Z,13.40
2022-10-25T01:05:26.065Z,15.07
2022-10-25T01:07:53.529Z,21.90
2022-10-25T01:10:21.347Z,22.60
2022-10-25T01:12:52.005Z,19.37
2022-10-25T01:15:23.912Z,22.50
2022-10-25T01:18:22.967Z,18.10
2022-10-25T01:21:18.384Z,23.83
2022-10-25T01:24:09.818Z,22.70
2022-10-25T01:26:49.190Z,21.13
2022-10-25T01:29:51.023Z,15.67
2022-10-25T01:32:29.225Z,16.30
2022-10-25T01:35:05.909Z,14.77
2022-10-25T01:38:00.290Z,14.80
2022-10-25T01:40:52.587Z,14.57
2022-10-25T01:43:24.366Z,15.37
2022-10-25T01:46:10.222Z,23.20
2022-10-25T01:48:56.046Z,18.90
2022-10-25T01:51:27.274Z,18.33
2022-10-25T01:53:54.618Z,18.13
2022-10-25T01:56:40.409Z,19.30
2022-10-25T01:59:32.955Z,19.43
2022-10-25T02:02:24.374Z,15.50
2022-10-25T02:05:28.850Z,18.70
2022-10-25T02:08:06.177Z,18.00
2022-10-25T02:10:48.541Z,15.13
2022-10-25T02:13:27.753Z,14.60
2022-10-25T02:16:05.971Z,15.50
2022-10-25T02:18:37.676Z,15.90
2022-10-25T02:21:06.962Z,16.40
2022-10-25T02:23:36.958Z,12.90
2022-10-25T02:26:07.556Z,11.50
2022-10-25T02:28:40.354Z,16.07
2022-10-25T02:31:11.768Z,14.20
2022-10-25T02:33:39.710Z,15.07
2022-10-25T02:36:08.163Z,14.90
2022-10-25T02:38:36.164Z,14.57
2022-10-25T02:41:05.938Z,14.43
2022-10-25T02:43:33.355Z,13.27
2022-10-25T02:46:05.066Z,13.23
2022-10-25T02:48:32.863Z,14.07
2022-10-25T02:51:00.364Z,11.50
2022-10-25T02:53:29.263Z,11.32
2022-10-25T02:56:02.151Z,13.77
2022-10-25T02:58:32.588Z,15.50
2022-10-25T03:01:00.932Z,17.97
2022-10-25T03:03:29.122Z,18.87
2022-10-25T03:05:57.164Z,19.77
2022-10-25T03:08:25.833Z,22.58
2022-10-25T03:10:54.020Z,19.27
2022-10-25T03:13:21.516Z,20.03
2022-10-25T03:15:49.553Z,21.63
2022-10-25T03:18:17.232Z,18.53
2022-10-25T03:20:44.725Z,20.90
2022-10-25T03:23:12.860Z,20.87
2022-10-25T03:25:41.058Z,21.37
2022-10-25T03:28:08.998Z,22.70
2022-10-25T03:30:36.807Z,21.73
2022-10-25T03:33:04.414Z,19.97
2022-10-25T03:35:31.753Z,19.37
2022-10-25T03:37:59.412Z,15.17
2022-10-25T03:40:26.914Z,15.23
2022-10-25T03:42:54.237Z,19.63
2022-10-25T03:45:21.972Z,18.37
2022-10-25T03:47:49.691Z,18.73
2022-10-25T03:50:17.489Z,20.77
2022-10-25T03:52:45.200Z,18.13
2022-10-25T03:55:12.713Z,17.13
2022-10-25T03:57:40.317Z,18.27
2022-10-25T04:00:08.948Z,19.00
2022-10-25T04:02:39.367Z,16.87
2022-10-25T04:05:07.397Z,19.87
2022-10-25T04:07:34.925Z,16.23
2022-10-25T04:10:02.853Z,16.47
2022-10-25T04:12:30.633Z,14.45
2022-10-25T04:14:58.065Z,13.93
2022-10-25T04:17:25.490Z,12.33
2022-10-25T04:19:53.182Z,16.63
2022-10-25T04:22:20.525Z,18.93
2022-10-25T04:24:47.879Z,15.47
2022-10-25T04:27:15.916Z,16.07
2022-10-25T04:29:43.505Z,16.07
2022-10-25T04:32:11.896Z,14.27
2022-10-25T04:34:39.916Z,15.38
2022-10-25T04:37:07.479Z,14.37
2022-10-25T04:39:34.869Z,15.50
2022-10-25T04:42:02.810Z,14.93
2022-10-25T04:44:30.770Z,22.23
2022-10-25T04:46:59.372Z,16.98
2022-10-25T04:49:27.340Z,16.77
2022-10-25T04:51:54.796Z,18.40
2022-10-25T04:54:22.452Z,17.00
2022-10-25T04:56:50.559Z,19.27
2022-10-25T04:59:18.557Z,17.30
2022-10-25T05:01:46.335Z,17.67
2022-10-25T05:04:14.288Z,19.93
2022-10-25T05:06:41.659Z,15.63
2022-10-25T05:09:09.084Z,15.57
2022-10-25T05:14:09.324Z,14.23
2022-10-25T05:16:37.126Z,13.23
2022-10-25T05:19:04.595Z,12.23
2022-10-25T05:21:32.242Z,14.90
2022-10-25T05:24:01.992Z,16.83
2022-10-25T05:26:31.080Z,16.80
2022-10-25T05:28:58.887Z,15.65
2022-10-25T05:31:29.295Z,12.63
2022-10-25T05:33:59.429Z,11.83
2022-10-25T05:36:32.911Z,12.10
2022-10-25T05:39:01.489Z,11.33
2022-10-25T05:41:33.149Z,10.98
2022-10-25T05:44:03.641Z,11.27
2022-10-25T05:46:31.900Z,11.60
2022-10-25T05:49:00.096Z,13.07
2022-10-25T05:51:35.088Z,17.95
2022-10-25T05:54:10.312Z,16.07
2022-10-25T05:56:37.820Z,17.00
2022-10-25T05:59:09.270Z,16.70
2022-10-25T06:01:39.610Z,14.77
2022-10-25T06:04:13.993Z,17.50
2022-10-25T06:06:46.990Z,17.27
2022-10-25T06:09:15.081Z,18.67
2022-10-25T06:11:42.547Z,20.93
2022-10-25T06:14:10.898Z,19.20
2022-10-25T06:16:39.462Z,17.67
2022-10-25T06:19:07.214Z,17.87
2022-10-25T06:21:34.663Z,16.03
2022-10-25T06:24:02.767Z,17.77
2022-10-25T06:26:30.811Z,18.27
2022-10-25T06:29:01.541Z,15.83
2022-10-25T06:31:30.343Z,12.73
2022-10-25T06:34:00.679Z,9.55
2022-10-25T06:36:28.754Z,10.73
2022-10-25T06:38:56.598Z,10.70
2022-10-25T06:41:28.104Z,8.73
2022-10-25T06:43:56.063Z,9.43
2022-10-25T06:46:40.542Z,9.87
2022-10-25T06:49:20.333Z,8.93
2022-10-25T06:51:47.637Z,9.30
2022-10-25T06:54:15.052Z,7.87
2022-10-25T06:56:44.113Z,7.53
2022-10-25T06:59:11.992Z,7.53
2022-10-25T07:01:39.526Z,6.73
2022-10-25T07:04:07.349Z,6.07
2022-10-25T07:06:38.022Z,7.97
2022-10-25T07:09:06.798Z,6.60
2022-10-25T07:11:34.627Z,6.28
2022-10-25T07:14:04.482Z,6.93
2022-10-25T07:16:31.918Z,7.17
2022-10-25T07:19:02.333Z,7.07
2022-10-25T07:21:31.489Z,5.93
2022-10-25T07:26:36.132Z,6.90
2022-10-25T07:29:05.125Z,7.27
2022-10-25T07:31:41.424Z,6.03
2022-10-25T07:34:13.887Z,8.20
2022-10-25T07:36:42.483Z,7.90
2022-10-25T07:39:10.065Z,7.15
2022-10-25T07:41:37.419Z,6.47
2022-10-25T07:44:05.256Z,7.60
2022-10-25T07:46:32.855Z,7.40
2022-10-25T07:49:00.362Z,7.53
2022-10-25T07:51:28.153Z,8.97
2022-10-25T07:53:55.625Z,8.57
2022-10-25T07:56:23.862Z,8.47
2022-10-25T07:58:52.675Z,8.98
2022-10-25T08:01:26.829Z,8.68
2022-10-25T08:03:55.719Z,8.50
2022-10-25T08:06:25.395Z,8.20
2022-10-25T08:08:53.527Z,7.27
2022-10-25T08:11:21.377Z,8.50
2022-10-25T08:13:50.682Z,6.73
2022-10-25T08:16:18.763Z,5.63
2022-10-25T08:18:46.538Z,5.62
2022-10-25T08:21:15.175Z,6.77
2022-10-25T08:23:42.684Z,7.10
2022-10-25T08:26:10.745Z,6.20
2022-10-25T08:28:38.170Z,6.85
2022-10-25T08:31:06.109Z,8.05
2022-10-25T08:33:34.097Z,7.40
2022-10-25T08:36:04.784Z,9.82
2022-10-25T08:38:32.229Z,6.93
2022-10-25T08:41:14.099Z,6.47
2022-10-25T08:44:09.608Z,6.65
2022-10-25T08:46:43.048Z,8.27
2022-10-25T08:49:28.512Z,8.20
2022-10-25T08:51:58.964Z,8.57
2022-10-25T08:54:41.408Z,7.40
2022-10-25T08:57:32.476Z,8.65
2022-10-25T09:00:10.840Z,6.90
2022-10-25T09:02:46.407Z,9.13
2022-10-25T09:05:36.708Z,7.15
2022-10-25T09:08:09.062Z,4.90
2022-10-25T09:10:54.866Z,6.37
2022-10-25T09:13:40.770Z,6.00
2022-10-25T09:16:09.389Z,5.75
2022-10-25T09:21:22.206Z,6.70
2022-10-25T09:24:18.539Z,5.82
2022-10-25T09:27:14.534Z,5.93
2022-10-25T09:29:48.833Z,5.93
2022-10-25T09:32:49.390Z,5.12
2022-10-25T09:35:23.280Z,4.53
2022-10-25T09:37:58.735Z,6.10
2022-10-25T09:40:33.157Z,5.37
2022-10-25T09:43:17.362Z,5.50
2022-10-25T09:46:03.942Z,4.97
2022-10-25T09:48:58.328Z,5.10
2022-10-25T09:51:43.351Z,5.57
2022-10-25T09:54:28.891Z,6.12
2022-10-25T09:56:56.774Z,5.97
2022-10-25T09:59:24.688Z,6.50
2022-10-25T10:01:52.637Z,6.10
2022-10-25T10:04:36.108Z,5.30
2022-10-25T10:07:31.228Z,5.43
2022-10-25T10:10:02.548Z,4.78
2022-10-25T10:12:43.971Z,5.93
2022-10-25T10:15:20.941Z,4.72
2022-10-25T10:17:48.790Z,5.80
2022-10-25T10:20:18.829Z,7.25
2022-10-25T10:22:53.649Z,6.97
2022-10-25T10:25:27.679Z,5.37
2022-10-25T10:27:57.637Z,6.35
2022-10-25T10:30:30.892Z,6.40
2022-10-25T10:33:01.298Z,5.70
2022-10-25T10:35:33.763Z,5.93
2022-10-25T10:38:30.733Z,5.65
2022-10-25T10:41:24.157Z,6.30
2022-10-25T10:43:55.100Z,5.78
2022-10-25T10:46:24.922Z,6.22
2022-10-25T10:48:59.157Z,6.15
2022-10-25T10:51:44.945Z,6.37
2022-10-25T10:54:24.750Z,6.50
2022-10-25T10:57:07.358Z,6.12
2022-10-25T10:59:52.358Z,6.12
2022-10-25T11:02:26.638Z,6.75
2022-10-25T11:04:56.842Z,5.80
2022-10-25T11:07:33.636Z,5.87
2022-10-25T11:10:16.246Z,6.57
2022-10-25T11:12:45.119Z,7.12
2022-10-25T11:15:16.491Z,5.85
2022-10-25T11:17:58.363Z,6.32
2022-10-25T11:20:31.142Z,7.00
2022-10-25T11:23:23.096Z,5.60
2022-10-25T11:26:02.438Z,5.43
2022-10-25T11:28:43.642Z,6.50
2022-10-25T11:31:38.663Z,8.00
2022-10-25T11:34:24.512Z,6.50
2022-10-25T11:37:35.050Z,5.90
2022-10-25T11:40:22.337Z,5.10
2022-10-25T11:43:00.383Z,5.57
2022-10-25T11:45:40.786Z,6.62
2022-10-25T11:48:35.811Z,5.85
2022-10-25T11:51:50.704Z,5.57
2022-10-25T11:54:32.118Z,6.28
2022-10-25T11:56:59.948Z,4.87
2022-10-25T11:59:37.944Z,5.15
2022-10-25T12:02:26.377Z,5.30
2022-10-25T12:05:15.929Z,5.72
2022-10-25T12:07:51.274Z,6.18
2022-10-25T12:10:33.068Z,6.62
2022-10-25T12:13:05.057Z,5.62
2022-10-25T12:15:37.294Z,6.05
2022-10-25T12:18:07.812Z,5.93
2022-10-25T12:20:37.112Z,7.53
2022-10-25T12:23:10.902Z,5.57
2022-10-25T12:25:47.408Z,5.50
2022-10-25T12:28:29.923Z,6.45
2022-10-25T12:31:02.328Z,7.35
2022-10-25T12:33:41.574Z,5.90
2022-10-25T12:36:40.986Z,5.37
2022-10-25T12:39:16.716Z,5.25
2022-10-25T12:41:49.675Z,6.57
2022-10-25T12:44:47.198Z,5.82
2022-10-25T12:47:30.219Z,5.90
2022-10-25T12:50:39.063Z,6.00
2022-10-25T12:53:30.581Z,5.45
2022-10-25T12:56:14.848Z,5.15
2022-10-25T12:59:25.507Z,7.68
2022-10-25T13:02:25.683Z,6.87
2022-10-25T13:05:28.375Z,6.37
2022-10-25T13:07:59.074Z,6.80
2022-10-25T13:10:27.697Z,6.40
2022-10-25T13:13:07.319Z,6.35
2022-10-25T13:15:45.140Z,6.32
2022-10-25T13:18:35.776Z,6.00
2022-10-25T13:21:10.280Z,7.05
2022-10-25T13:23:43.792Z,6.87
2022-10-25T13:26:20.801Z,8.02
2022-10-25T13:28:50.390Z,5.15
2022-10-25T13:31:33.467Z,6.68
2022-10-25T13:34:35.566Z,6.05
2022-10-25T13:37:05.645Z,7.18
2022-10-25T13:39:54.538Z,5.68
2022-10-25T13:42:36.651Z,7.18
2022-10-25T13:45:04.048Z,7.62
2022-10-25T13:47:46.066Z,7.68
2022-10-25T13:50:53.699Z,9.95
2022-10-25T13:53:23.556Z,10.55
2022-10-25T13:56:05.175Z,8.43
2022-10-25T13:58:32.928Z,8.00
2022-10-25T14:01:18.890Z,7.18
2022-10-25T14:03:54.524Z,8.60
2022-10-25T14:06:32.803Z,8.45
2022-10-25T14:09:09.050Z,8.40
2022-10-25T14:11:41.522Z,10.55
2022-10-25T14:14:12.259Z,9.38
2022-10-25T14:16:47.600Z,9.23
2022-10-25T14:19:20.536Z,9.32
2022-10-25T14:21:51.006Z,10.95
2022-10-25T14:24:20.464Z,13.23
2022-10-25T14:26:54.524Z,13.95
2022-10-25T14:29:24.971Z,12.68
2022-10-25T14:31:53.287Z,13.70
2022-10-25T14:36:56.435Z,29.33
2022-10-25T14:39:30.780Z,37.95
2022-10-25T14:42:01.498Z,46.83
2022-10-25T14:44:32.106Z,35.25
2022-10-25T14:47:00.767Z,31.37
2022-10-25T14:49:30.522Z,52.20
2022-10-25T14:52:02.302Z,55.83
2022-10-25T14:54:34.107Z,46.67
2022-10-25T14:57:07.760Z,41.83
2022-10-25T14:59:54.099Z,49.65
2022-10-25T15:02:28.657Z,51.45
2022-10-25T15:04:58.718Z,56.58
2022-10-25T15:07:32.196Z,62.62
2022-10-25T15:10:02.167Z,63.85
2022-10-25T15:12:31.585Z,64.35
2022-10-25T15:15:20.051Z,62.67
2022-10-25T15:17:52.366Z,60.28
2022-10-25T15:20:19.872Z,59.08
2022-10-25T15:22:49.889Z,58.40
2022-10-25T15:25:23.746Z,52.03
2022-10-25T15:27:54.804Z,46.65
2022-10-25T15:31:01.678Z,45.85
2022-10-25T15:33:32.032Z,40.43
2022-10-25T15:36:02.381Z,35.03
2022-10-25T15:38:54.222Z,33.47
2022-10-25T15:41:20.310Z,30.83
2022-10-25T15:43:48.092Z,34.63
2022-10-25T15:46:27.710Z,29.08
2022-10-25T15:48:55.744Z,29.80
2022-10-25T15:51:25.164Z,27.75
2022-10-25T15:53:55.238Z,27.13
2022-10-25T15:56:22.743Z,30.50
2022-10-25T15:58:51.411Z,24.30
2022-10-25T16:01:19.660Z,24.05
2022-10-25T16:03:47.637Z,28.30
2022-10-25T16:06:15.072Z,33.20
2022-10-25T16:08:42.789Z,38.70
2022-10-25T16:11:17.622Z,40.20
2022-10-25T16:13:47.122Z,41.15
2022-10-25T16:16:41.198Z,38.03
2022-10-25T16:19:15.900Z,31.90
2022-10-25T16:21:44.082Z,33.50
2022-10-25T16:24:12.029Z,24.67
2022-10-25T16:26:43.105Z,20.43
2022-10-25T16:29:24.815Z,26.33
2022-10-25T16:31:53.979Z,29.02
2022-10-25T16:34:22.125Z,27.90
2022-10-25T16:36:50.691Z,27.37
2022-10-25T16:39:18.206Z,25.52
2022-10-25T16:41:47.558Z,28.30
2022-10-25T16:46:43.844Z,18.92
2022-10-25T16:49:11.963Z,22.65
2022-10-25T16:51:40.734Z,37.63
2022-10-25T16:54:08.887Z,32.33
2022-10-25T16:56:36.617Z,30.58
2022-10-25T16:59:04.239Z,25.55
2022-10-25T17:01:34.901Z,24.33
2022-10-25T17:04:05.304Z,19.05
2022-10-25T17:06:41.255Z,18.83
2022-10-25T17:09:11.522Z,16.90
2022-10-25T17:11:39.418Z,17.90
2022-10-25T17:14:09.869Z,19.25
2022-10-25T17:16:44.130Z,18.45
2022-10-25T17:19:13.273Z,26.15
2022-10-25T17:21:42.048Z,32.30
2022-10-25T17:24:10.163Z,24.25
2022-10-25T17:29:08.367Z,18.40
2022-10-25T17:31:37.158Z,16.80
2022-10-25T17:34:04.951Z,16.98
2022-10-25T17:36:34.327Z,16.95
2022-10-25T17:39:02.613Z,18.85
2022-10-25T17:41:30.745Z,20.23
2022-10-25T17:44:00.113Z,19.73
2022-10-25T17:49:03.533Z,17.47
2022-10-25T17:51:33.855Z,20.40
2022-10-25T17:54:02.386Z,33.40
2022-10-25T17:59:04.229Z,33.43
2022-10-25T18:01:36.079Z,29.10
2022-10-25T18:04:05.341Z,25.77
2022-10-25T18:09:03.948Z,24.87
2022-10-25T18:11:31.895Z,26.63
2022-10-25T18:14:00.913Z,35.07
2022-10-25T18:16:31.281Z,43.20
2022-10-25T18:19:01.903Z,45.10
2022-10-25T18:21:30.386Z,36.73
2022-10-25T18:24:03.787Z,39.10
2022-10-25T18:26:32.153Z,39.33
2022-10-25T18:28:59.909Z,41.20
2022-10-25T18:31:27.692Z,35.30
2022-10-25T18:33:56.119Z,37.97
2022-10-25T18:36:23.641Z,35.65
2022-10-25T18:38:52.014Z,32.53
2022-10-25T18:41:24.260Z,32.75
2022-10-25T18:43:52.025Z,31.87
2022-10-25T18:46:19.775Z,48.22
2022-10-25T18:48:51.740Z,54.83
2022-10-25T18:51:21.323Z,31.93
2022-10-25T18:53:57.610Z,28.10
2022-10-25T18:56:25.779Z,27.57
2022-10-25T18:58:56.874Z,33.90
2022-10-25T19:01:26.371Z,33.47
2022-10-25T19:03:56.920Z,33.23
2022-10-25T19:06:24.732Z,33.00
2022-10-25T19:08:52.234Z,35.53
2022-10-25T19:11:20.054Z,35.80
2022-10-25T19:13:50.428Z,34.63
2022-10-25T19:16:18.875Z,32.03
2022-10-25T19:18:46.722Z,30.80
2022-10-25T19:21:17.192Z,37.90
2022-10-25T19:23:46.499Z,33.73
2022-10-25T19:26:20.842Z,36.70
2022-10-25T19:28:48.336Z,33.37
2022-10-25T19:31:17.797Z,33.97
2022-10-25T19:36:17.819Z,23.50
2022-10-25T19:38:45.849Z,24.92
2022-10-25T19:41:16.460Z,20.27
2022-10-25T19:43:44.446Z,18.83
2022-10-25T19:46:12.906Z,21.50
2022-10-25T19:48:40.517Z,19.05
2022-10-25T19:51:13.902Z,24.70
2022-10-25T19:53:41.925Z,19.17
2022-10-25T19:56:15.410Z,19.35
2022-10-25T19:58:43.467Z,21.43
2022-10-25T20:01:15.697Z,21.00
2022-10-25T20:03:45.019Z,20.90
2022-10-25T20:06:21.591Z,19.98
2022-10-25T20:08:53.238Z,13.63
2022-10-25T20:11:21.530Z,20.37
2022-10-25T20:13:52.283Z,18.30
2022-10-25T20:16:20.096Z,19.60
2022-10-25T20:18:47.467Z,15.73
2022-10-25T20:21:18.820Z,16.67
2022-10-25T20:23:52.021Z,19.57
2022-10-25T20:26:22.106Z,23.00
2022-10-25T20:28:52.505Z,22.27
2022-10-25T20:31:20.185Z,23.83
2022-10-25T20:33:48.020Z,29.80
2022-10-25T20:36:16.605Z,27.70
2022-10-25T20:38:44.274Z,25.37
2022-10-25T20:41:16.319Z,26.97
2022-10-25T20:43:49.724Z,23.97
2022-10-25T20:46:18.472Z,21.57
2022-10-25T20:51:15.700Z,26.70
2022-10-25T20:56:13.455Z,28.33
2022-10-25T20:58:41.102Z,23.87
2022-10-25T21:01:09.158Z,23.43
2022-10-25T21:03:37.250Z,22.40
2022-10-25T21:06:06.559Z,21.77
2022-10-25T21:08:36.115Z,24.57
2022-10-25T21:11:06.257Z,25.80
2022-10-25T21:13:35.507Z,26.37
2022-10-25T21:16:10.004Z,24.03
2022-10-25T21:18:37.813Z,25.00
2022-10-25T21:21:10.594Z,26.20
2022-10-25T21:23:38.434Z,23.67
2022-10-25T21:26:07.923Z,24.60
2022-10-25T21:28:38.101Z,26.37
2022-10-25T21:31:12.021Z,25.13
2022-10-25T21:33:41.904Z,31.07
2022-10-25T21:36:12.763Z,29.63
2022-10-25T21:38:40.783Z,27.67
2022-10-25T21:41:17.390Z,24.77
2022-10-25T21:43:47.059Z,19.83
2022-10-25T21:46:16.727Z,25.97
2022-10-25T21:48:47.313Z,30.63
2022-10-25T21:51:15.637Z,31.63
2022-10-25T21:53:43.424Z,28.23
2022-10-25T21:56:16.412Z,30.17
2022-10-25T21:58:46.549Z,24.13
2022-10-25T22:01:20.551Z,23.93
2022-10-25T22:03:48.864Z,25.77
2022-10-25T22:06:19.260Z,26.47
2022-10-25T22:08:47.017Z,22.40
2022-10-25T22:11:21.279Z,22.20
2022-10-25T22:13:48.753Z,25.37
2022-10-25T22:16:18.675Z,25.07
2022-10-25T22:18:52.346Z,23.27
2022-10-25T22:21:21.323Z,27.13
2022-10-25T22:23:48.795Z,22.20
2022-10-25T22:26:19.663Z,21.53
2022-10-25T22:28:52.078Z,19.13
2022-10-25T22:31:20.451Z,22.37
2022-10-25T22:33:54.847Z,27.25
2022-10-25T22:36:23.951Z,26.87
2022-10-25T22:38:51.893Z,26.27
2022-10-25T22:41:22.012Z,25.53
2022-10-25T22:43:50.203Z,23.70
2022-10-25T22:46:25.391Z,23.92
2022-10-25T22:48:54.846Z,23.50
2022-10-25T22:51:24.467Z,23.73
2022-10-25T22:53:52.180Z,24.70
2022-10-25T22:56:22.624Z,24.37
2022-10-25T22:58:55.885Z,21.43
2022-10-25T23:01:25.838Z,20.90
2022-10-25T23:03:55.698Z,19.90
2022-10-25T23:06:26.335Z,22.77
2022-10-25T23:08:56.197Z,24.13
2022-10-25T23:11:26.486Z,22.17
2022-10-25T23:13:54.530Z,21.23
2022-10-25T23:16:21.905Z,19.83
2022-10-25T23:18:49.654Z,18.97
2022-10-25T23:21:25.559Z,19.95
2022-10-25T23:23:54.099Z,19.30
2022-10-25T23:26:27.915Z,17.95
2022-10-25T23:28:56.417Z,19.47
2022-10-25T23:31:25.223Z,20.62
2022-10-25T23:33:54.630Z,20.88
2022-10-25T23:36:24.696Z,18.87
2022-10-25T23:38:53.462Z,18.43
2022-10-25T23:41:22.270Z,17.70
2022-10-25T23:43:50.105Z,18.60
2022-10-25T23:46:17.879Z,20.33
2022-10-25T23:48:45.334Z,19.90
2022-10-25T23:51:16.075Z,17.57
2022-10-25T23:53:44.041Z,20.13
2022-10-25T23:56:13.093Z,20.43
2022-10-25T23:58:41.009Z,18.45
